sensor_id;sensor_type;location;lat;lon;timestamp;temperature;humidity
42479;DHT22;28110;47.080;9.476;2023-05-16T00:01:45;11.60;99.90
42479;DHT22;28110;47.080;9.476;2023-05-16T00:04:10;11.60;99.90
42479;DHT22;28110;47.080;9.476;2023-05-16T00:06:36;11.60;99.90
42479;DHT22;28110;47.080;9.476;2023-05-16T00:09:01;11.60;99.90
42479;DHT22;28110;47.080;9.476;2023-05-16T00:11:27;11.60;99.90
42479;DHT22;28110;47.080;9.476;2023-05-16T00:13:53;11.60;99.90
42479;DHT22;28110;47.080;9.476;2023-05-16T00:16:19;11.60;99.90
42479;DHT22;28110;47.080;9.476;2023-05-16T00:18:46;11.60;99.90
42479;DHT22;28110;47.080;9.476;2023-05-16T00:21:11;11.60;99.90
42479;DHT22;28110;47.080;9.476;2023-05-16T00:23:38;11.60;99.90
42479;DHT22;28110;47.080;9.476;2023-05-16T00:26:03;11.60;99.90
42479;DHT22;28110;47.080;9.476;2023-05-16T00:28:29;11.60;99.90
42479;DHT22;28110;47.080;9.476;2023-05-16T00:30:54;11.50;99.90
42479;DHT22;28110;47.080;9.476;2023-05-16T00:33:20;11.50;99.90
42479;DHT22;28110;47.080;9.476;2023-05-16T00:35:45;11.50;99.90
42479;DHT22;28110;47.080;9.476;2023-05-16T00:38:11;11.50;99.90
42479;DHT22;28110;47.080;9.476;2023-05-16T00:40:37;11.60;99.90
42479;DHT22;28110;47.080;9.476;2023-05-16T00:43:03;11.50;99.90
42479;DHT22;28110;47.080;9.476;2023-05-16T00:45:28;11.50;99.90
42479;DHT22;28110;47.080;9.476;2023-05-16T00:47:54;11.50;99.90
42479;DHT22;28110;47.080;9.476;2023-05-16T00:50:20;11.50;99.90
42479;DHT22;28110;47.080;9.476;2023-05-16T00:52:46;11.50;99.90
42479;DHT22;28110;47.080;9.476;2023-05-16T00:55:12;11.50;99.90
42479;DHT22;28110;47.080;9.476;2023-05-16T00:57:38;11.50;99.90
42479;DHT22;28110;47.080;9.476;2023-05-16T01:00:06;11.50;99.90
42479;DHT22;28110;47.080;9.476;2023-05-16T01:02:36;11.50;99.90
42479;DHT22;28110;47.080;9.476;2023-05-16T01:05:02;11.50;99.90
42479;DHT22;28110;47.080;9.476;2023-05-16T01:07:30;11.50;99.90
42479;DHT22;28110;47.080;9.476;2023-05-16T01:09:55;11.50;99.90
42479;DHT22;28110;47.080;9.476;2023-05-16T01:15:28;11.40;99.90
42479;DHT22;28110;47.080;9.476;2023-05-16T01:18:17;11.50;99.90
42479;DHT22;28110;47.080;9.476;2023-05-16T01:21:01;11.40;99.90
42479;DHT22;28110;47.080;9.476;2023-05-16T01:23:51;11.40;99.90
42479;DHT22;28110;47.080;9.476;2023-05-16T01:26:22;11.40;99.90
42479;DHT22;28110;47.080;9.476;2023-05-16T01:28:50;11.40;99.90
42479;DHT22;28110;47.080;9.476;2023-05-16T01:31:16;11.40;99.90
42479;DHT22;28110;47.080;9.476;2023-05-16T01:33:42;11.40;99.90
42479;DHT22;28110;47.080;9.476;2023-05-16T01:42:00;11.40;99.90
42479;DHT22;28110;47.080;9.476;2023-05-16T01:44:34;11.40;99.90
42479;DHT22;28110;47.080;9.476;2023-05-16T01:47:12;11.40;99.90
42479;DHT22;28110;47.080;9.476;2023-05-16T01:52:36;11.30;99.90
42479;DHT22;28110;47.080;9.476;2023-05-16T01:55:03;11.30;99.90
42479;DHT22;28110;47.080;9.476;2023-05-16T01:57:29;11.30;99.90
42479;DHT22;28110;47.080;9.476;2023-05-16T01:59:57;11.30;99.90
42479;DHT22;28110;47.080;9.476;2023-05-16T02:02:23;11.30;99.90
42479;DHT22;28110;47.080;9.476;2023-05-16T02:04:49;11.30;99.90
42479;DHT22;28110;47.080;9.476;2023-05-16T02:07:15;11.30;99.90
42479;DHT22;28110;47.080;9.476;2023-05-16T02:09:40;11.20;99.90
42479;DHT22;28110;47.080;9.476;2023-05-16T02:12:06;11.30;99.90
42479;DHT22;28110;47.080;9.476;2023-05-16T02:14:32;11.30;99.90
42479;DHT22;28110;47.080;9.476;2023-05-16T02:16:58;11.20;99.90
42479;DHT22;28110;47.080;9.476;2023-05-16T02:19:23;11.20;99.90
42479;DHT22;28110;47.080;9.476;2023-05-16T02:21:49;11.20;99.90
42479;DHT22;28110;47.080;9.476;2023-05-16T02:24:15;11.20;99.90
42479;DHT22;28110;47.080;9.476;2023-05-16T02:26:40;11.20;99.90
42479;DHT22;28110;47.080;9.476;2023-05-16T02:29:06;11.10;99.90
42479;DHT22;28110;47.080;9.476;2023-05-16T02:31:32;11.10;99.90
42479;DHT22;28110;47.080;9.476;2023-05-16T02:34:01;11.10;99.90
42479;DHT22;28110;47.080;9.476;2023-05-16T02:36:27;11.10;99.90
42479;DHT22;28110;47.080;9.476;2023-05-16T02:38:53;11.10;99.90
42479;DHT22;28110;47.080;9.476;2023-05-16T02:41:18;11.10;99.90
42479;DHT22;28110;47.080;9.476;2023-05-16T02:43:46;11.10;99.90
42479;DHT22;28110;47.080;9.476;2023-05-16T02:48:50;11.10;99.90
42479;DHT22;28110;47.080;9.476;2023-05-16T02:51:16;11.20;99.90
42479;DHT22;28110;47.080;9.476;2023-05-16T02:53:42;11.10;99.90
42479;DHT22;28110;47.080;9.476;2023-05-16T02:56:08;11.10;99.90
42479;DHT22;28110;47.080;9.476;2023-05-16T02:58:34;11.20;99.90
42479;DHT22;28110;47.080;9.476;2023-05-16T03:01:00;11.10;99.90
42479;DHT22;28110;47.080;9.476;2023-05-16T03:03:25;11.10;99.90
42479;DHT22;28110;47.080;9.476;2023-05-16T03:05:51;11.10;99.90
42479;DHT22;28110;47.080;9.476;2023-05-16T03:08:17;11.10;99.90
42479;DHT22;28110;47.080;9.476;2023-05-16T03:10:43;11.10;99.90
42479;DHT22;28110;47.080;9.476;2023-05-16T03:13:08;11.10;99.90
42479;DHT22;28110;47.080;9.476;2023-05-16T03:15:34;11.10;99.90
42479;DHT22;28110;47.080;9.476;2023-05-16T03:17:59;11.10;99.90
42479;DHT22;28110;47.080;9.476;2023-05-16T03:20:25;11.10;99.90
42479;DHT22;28110;47.080;9.476;2023-05-16T03:22:51;11.10;99.90
42479;DHT22;28110;47.080;9.476;2023-05-16T03:25:16;11.10;99.90
42479;DHT22;28110;47.080;9.476;2023-05-16T03:27:42;11.10;99.90
42479;DHT22;28110;47.080;9.476;2023-05-16T03:30:08;11.10;99.90
42479;DHT22;28110;47.080;9.476;2023-05-16T03:32:33;11.10;99.90
42479;DHT22;28110;47.080;9.476;2023-05-16T03:34:59;11.10;99.90
42479;DHT22;28110;47.080;9.476;2023-05-16T03:37:25;11.10;99.90
42479;DHT22;28110;47.080;9.476;2023-05-16T03:39:51;11.10;99.90
42479;DHT22;28110;47.080;9.476;2023-05-16T03:42:16;11.10;99.90
42479;DHT22;28110;47.080;9.476;2023-05-16T03:44:43;11.20;99.90
42479;DHT22;28110;47.080;9.476;2023-05-16T03:47:09;11.30;99.90
42479;DHT22;28110;47.080;9.476;2023-05-16T03:49:34;11.50;99.90
42479;DHT22;28110;47.080;9.476;2023-05-16T03:52:02;11.50;99.90
42479;DHT22;28110;47.080;9.476;2023-05-16T03:54:28;11.60;99.90
42479;DHT22;28110;47.080;9.476;2023-05-16T03:56:53;11.60;99.90
42479;DHT22;28110;47.080;9.476;2023-05-16T03:59:19;11.60;99.90
42479;DHT22;28110;47.080;9.476;2023-05-16T04:01:44;11.60;99.90
42479;DHT22;28110;47.080;9.476;2023-05-16T04:04:10;11.70;99.90
42479;DHT22;28110;47.080;9.476;2023-05-16T04:06:35;11.70;99.90
42479;DHT22;28110;47.080;9.476;2023-05-16T04:09:01;11.60;99.90
42479;DHT22;28110;47.080;9.476;2023-05-16T04:11:26;11.60;99.90
42479;DHT22;28110;47.080;9.476;2023-05-16T04:13:52;11.60;99.90
42479;DHT22;28110;47.080;9.476;2023-05-16T04:16:18;11.50;99.90
42479;DHT22;28110;47.080;9.476;2023-05-16T04:18:44;11.60;99.90
42479;DHT22;28110;47.080;9.476;2023-05-16T04:21:10;11.60;99.90
42479;DHT22;28110;47.080;9.476;2023-05-16T04:23:39;11.60;99.90
42479;DHT22;28110;47.080;9.476;2023-05-16T04:26:05;11.60;99.90
42479;DHT22;28110;47.080;9.476;2023-05-16T04:28:30;11.60;99.90
42479;DHT22;28110;47.080;9.476;2023-05-16T04:30:56;11.50;99.90
42479;DHT22;28110;47.080;9.476;2023-05-16T04:33:22;11.40;99.90
42479;DHT22;28110;47.080;9.476;2023-05-16T04:35:47;11.40;99.90
42479;DHT22;28110;47.080;9.476;2023-05-16T04:38:14;11.40;99.90
42479;DHT22;28110;47.080;9.476;2023-05-16T04:40:40;11.40;99.90
42479;DHT22;28110;47.080;9.476;2023-05-16T04:43:08;11.30;99.90
42479;DHT22;28110;47.080;9.476;2023-05-16T04:45:33;11.30;99.90
42479;DHT22;28110;47.080;9.476;2023-05-16T04:48:00;11.20;99.90
42479;DHT22;28110;47.080;9.476;2023-05-16T04:50:25;11.20;99.90
42479;DHT22;28110;47.080;9.476;2023-05-16T04:52:51;11.10;99.90
42479;DHT22;28110;47.080;9.476;2023-05-16T04:55:16;11.10;99.90
42479;DHT22;28110;47.080;9.476;2023-05-16T04:57:42;11.20;99.90
42479;DHT22;28110;47.080;9.476;2023-05-16T05:00:08;11.20;99.90
42479;DHT22;28110;47.080;9.476;2023-05-16T05:02:37;11.20;99.90
42479;DHT22;28110;47.080;9.476;2023-05-16T05:05:04;11.20;99.90
42479;DHT22;28110;47.080;9.476;2023-05-16T05:07:31;11.20;99.90
42479;DHT22;28110;47.080;9.476;2023-05-16T05:09:56;11.20;99.90
42479;DHT22;28110;47.080;9.476;2023-05-16T05:12:22;11.20;99.90
42479;DHT22;28110;47.080;9.476;2023-05-16T05:14:47;11.20;99.90
42479;DHT22;28110;47.080;9.476;2023-05-16T05:17:13;11.20;99.90
42479;DHT22;28110;47.080;9.476;2023-05-16T05:19:38;11.20;99.90
42479;DHT22;28110;47.080;9.476;2023-05-16T05:22:04;11.20;99.90
42479;DHT22;28110;47.080;9.476;2023-05-16T05:24:30;11.10;99.90
42479;DHT22;28110;47.080;9.476;2023-05-16T05:26:55;11.10;99.90
42479;DHT22;28110;47.080;9.476;2023-05-16T05:29:21;11.10;99.90
42479;DHT22;28110;47.080;9.476;2023-05-16T05:31:47;11.10;99.90
42479;DHT22;28110;47.080;9.476;2023-05-16T05:34:13;11.10;99.90
42479;DHT22;28110;47.080;9.476;2023-05-16T05:36:38;11.00;99.90
42479;DHT22;28110;47.080;9.476;2023-05-16T05:39:04;11.00;99.90
42479;DHT22;28110;47.080;9.476;2023-05-16T05:41:29;11.10;99.90
42479;DHT22;28110;47.080;9.476;2023-05-16T05:43:55;11.00;99.90
42479;DHT22;28110;47.080;9.476;2023-05-16T05:46:21;11.00;99.90
42479;DHT22;28110;47.080;9.476;2023-05-16T05:48:46;11.00;99.90
42479;DHT22;28110;47.080;9.476;2023-05-16T05:51:12;11.00;99.90
42479;DHT22;28110;47.080;9.476;2023-05-16T05:53:39;11.10;99.90
42479;DHT22;28110;47.080;9.476;2023-05-16T05:56:05;11.20;99.90
42479;DHT22;28110;47.080;9.476;2023-05-16T05:58:31;11.20;99.90
42479;DHT22;28110;47.080;9.476;2023-05-16T06:00:56;11.10;99.90
42479;DHT22;28110;47.080;9.476;2023-05-16T06:03:22;11.20;99.90
42479;DHT22;28110;47.080;9.476;2023-05-16T06:05:47;11.20;99.90
42479;DHT22;28110;47.080;9.476;2023-05-16T06:08:13;11.30;99.90
42479;DHT22;28110;47.080;9.476;2023-05-16T06:10:39;11.30;99.90
42479;DHT22;28110;47.080;9.476;2023-05-16T06:13:04;11.30;99.90
42479;DHT22;28110;47.080;9.476;2023-05-16T06:15:30;11.30;99.90
42479;DHT22;28110;47.080;9.476;2023-05-16T06:17:55;11.30;99.90
42479;DHT22;28110;47.080;9.476;2023-05-16T06:20:21;11.30;99.90
42479;DHT22;28110;47.080;9.476;2023-05-16T06:22:46;11.30;99.90
42479;DHT22;28110;47.080;9.476;2023-05-16T06:25:12;11.40;99.90
42479;DHT22;28110;47.080;9.476;2023-05-16T06:27:37;11.40;99.90
42479;DHT22;28110;47.080;9.476;2023-05-16T06:30:03;11.40;99.90
42479;DHT22;28110;47.080;9.476;2023-05-16T06:32:29;11.40;99.90
42479;DHT22;28110;47.080;9.476;2023-05-16T06:34:55;11.40;99.90
42479;DHT22;28110;47.080;9.476;2023-05-16T06:37:20;11.40;99.90
42479;DHT22;28110;47.080;9.476;2023-05-16T06:39:47;11.50;99.90
42479;DHT22;28110;47.080;9.476;2023-05-16T06:42:13;11.50;99.90
42479;DHT22;28110;47.080;9.476;2023-05-16T06:44:38;11.50;99.90
42479;DHT22;28110;47.080;9.476;2023-05-16T06:47:04;11.50;99.90
42479;DHT22;28110;47.080;9.476;2023-05-16T06:49:30;11.50;99.90
42479;DHT22;28110;47.080;9.476;2023-05-16T06:51:55;11.50;99.90
42479;DHT22;28110;47.080;9.476;2023-05-16T06:54:21;11.60;99.90
42479;DHT22;28110;47.080;9.476;2023-05-16T06:56:46;11.60;99.90
42479;DHT22;28110;47.080;9.476;2023-05-16T06:59:12;11.60;99.90
42479;DHT22;28110;47.080;9.476;2023-05-16T07:01:37;11.70;99.90
42479;DHT22;28110;47.080;9.476;2023-05-16T07:04:03;11.70;99.90
42479;DHT22;28110;47.080;9.476;2023-05-16T07:06:28;11.70;99.90
42479;DHT22;28110;47.080;9.476;2023-05-16T07:08:54;11.70;99.90
42479;DHT22;28110;47.080;9.476;2023-05-16T07:11:19;11.70;99.90
42479;DHT22;28110;47.080;9.476;2023-05-16T07:13:45;11.70;99.90
42479;DHT22;28110;47.080;9.476;2023-05-16T07:16:11;11.70;99.90
42479;DHT22;28110;47.080;9.476;2023-05-16T07:18:37;11.60;99.90
42479;DHT22;28110;47.080;9.476;2023-05-16T07:21:03;11.60;99.90
42479;DHT22;28110;47.080;9.476;2023-05-16T07:23:28;11.50;99.90
42479;DHT22;28110;47.080;9.476;2023-05-16T07:25:54;11.50;99.90
42479;DHT22;28110;47.080;9.476;2023-05-16T07:28:19;11.50;99.90
42479;DHT22;28110;47.080;9.476;2023-05-16T07:30:46;11.30;99.90
42479;DHT22;28110;47.080;9.476;2023-05-16T07:33:11;11.30;99.90
42479;DHT22;28110;47.080;9.476;2023-05-16T07:35:37;11.20;99.90
42479;DHT22;28110;47.080;9.476;2023-05-16T07:38:03;11.20;99.90
42479;DHT22;28110;47.080;9.476;2023-05-16T07:40:29;11.20;99.90
42479;DHT22;28110;47.080;9.476;2023-05-16T07:42:54;11.20;99.90
42479;DHT22;28110;47.080;9.476;2023-05-16T07:45:20;11.20;99.90
42479;DHT22;28110;47.080;9.476;2023-05-16T07:47:46;11.30;99.90
42479;DHT22;28110;47.080;9.476;2023-05-16T07:50:11;11.30;99.90
42479;DHT22;28110;47.080;9.476;2023-05-16T07:52:37;11.40;99.90
42479;DHT22;28110;47.080;9.476;2023-05-16T07:55:03;11.30;99.90
42479;DHT22;28110;47.080;9.476;2023-05-16T07:57:28;11.40;99.90
42479;DHT22;28110;47.080;9.476;2023-05-16T07:59:54;11.40;99.90
42479;DHT22;28110;47.080;9.476;2023-05-16T08:02:21;11.40;99.90
42479;DHT22;28110;47.080;9.476;2023-05-16T08:04:48;11.60;99.90
42479;DHT22;28110;47.080;9.476;2023-05-16T08:07:14;11.50;99.90
42479;DHT22;28110;47.080;9.476;2023-05-16T08:09:40;11.50;99.90
42479;DHT22;28110;47.080;9.476;2023-05-16T08:12:06;11.50;99.90
42479;DHT22;28110;47.080;9.476;2023-05-16T08:14:31;11.60;99.90
42479;DHT22;28110;47.080;9.476;2023-05-16T08:16:58;11.50;99.90
42479;DHT22;28110;47.080;9.476;2023-05-16T08:19:23;11.50;99.90
42479;DHT22;28110;47.080;9.476;2023-05-16T08:21:49;11.50;99.90
42479;DHT22;28110;47.080;9.476;2023-05-16T08:24:15;11.50;99.90
42479;DHT22;28110;47.080;9.476;2023-05-16T08:26:40;11.50;99.90
42479;DHT22;28110;47.080;9.476;2023-05-16T08:29:06;11.50;99.90
42479;DHT22;28110;47.080;9.476;2023-05-16T08:31:31;11.60;99.90
42479;DHT22;28110;47.080;9.476;2023-05-16T08:33:57;11.70;99.90
42479;DHT22;28110;47.080;9.476;2023-05-16T08:36:23;11.80;99.90
42479;DHT22;28110;47.080;9.476;2023-05-16T08:38:49;11.80;99.90
42479;DHT22;28110;47.080;9.476;2023-05-16T08:41:15;11.80;99.90
42479;DHT22;28110;47.080;9.476;2023-05-16T08:43:40;11.80;99.90
42479;DHT22;28110;47.080;9.476;2023-05-16T08:46:07;11.80;99.90
42479;DHT22;28110;47.080;9.476;2023-05-16T08:48:34;11.70;99.90
42479;DHT22;28110;47.080;9.476;2023-05-16T08:51:01;11.70;99.90
42479;DHT22;28110;47.080;9.476;2023-05-16T08:53:31;11.70;99.90
42479;DHT22;28110;47.080;9.476;2023-05-16T08:56:00;11.70;99.90
42479;DHT22;28110;47.080;9.476;2023-05-16T08:58:27;11.80;99.90
42479;DHT22;28110;47.080;9.476;2023-05-16T09:00:54;11.80;99.90
42479;DHT22;28110;47.080;9.476;2023-05-16T09:03:20;11.90;99.90
42479;DHT22;28110;47.080;9.476;2023-05-16T09:05:48;11.90;99.90
42479;DHT22;28110;47.080;9.476;2023-05-16T09:08:14;12.00;99.90
42479;DHT22;28110;47.080;9.476;2023-05-16T09:10:40;12.00;99.90
42479;DHT22;28110;47.080;9.476;2023-05-16T09:13:06;12.00;99.90
42479;DHT22;28110;47.080;9.476;2023-05-16T09:15:32;12.00;99.90
42479;DHT22;28110;47.080;9.476;2023-05-16T09:18:01;12.00;99.90
42479;DHT22;28110;47.080;9.476;2023-05-16T09:20:27;12.10;99.90
42479;DHT22;28110;47.080;9.476;2023-05-16T09:22:55;12.10;99.90
42479;DHT22;28110;47.080;9.476;2023-05-16T09:25:23;12.10;99.90
42479;DHT22;28110;47.080;9.476;2023-05-16T09:28:00;12.10;99.90
42479;DHT22;28110;47.080;9.476;2023-05-16T09:30:30;12.10;99.90
42479;DHT22;28110;47.080;9.476;2023-05-16T09:32:56;12.00;99.90
42479;DHT22;28110;47.080;9.476;2023-05-16T09:35:22;12.00;99.90
42479;DHT22;28110;47.080;9.476;2023-05-16T09:37:49;12.10;99.90
42479;DHT22;28110;47.080;9.476;2023-05-16T09:40:22;12.00;99.90
42479;DHT22;28110;47.080;9.476;2023-05-16T09:43:01;12.00;99.90
42479;DHT22;28110;47.080;9.476;2023-05-16T09:45:28;12.10;99.90
42479;DHT22;28110;47.080;9.476;2023-05-16T09:48:00;12.20;99.90
42479;DHT22;28110;47.080;9.476;2023-05-16T09:50:25;12.20;99.90
42479;DHT22;28110;47.080;9.476;2023-05-16T09:52:51;12.30;99.90
42479;DHT22;28110;47.080;9.476;2023-05-16T09:55:17;12.40;99.90
42479;DHT22;28110;47.080;9.476;2023-05-16T09:57:42;12.40;99.90
42479;DHT22;28110;47.080;9.476;2023-05-16T10:00:11;12.50;99.90
42479;DHT22;28110;47.080;9.476;2023-05-16T10:02:38;12.60;99.90
42479;DHT22;28110;47.080;9.476;2023-05-16T10:05:06;12.60;99.90
42479;DHT22;28110;47.080;9.476;2023-05-16T10:07:33;12.70;99.90
42479;DHT22;28110;47.080;9.476;2023-05-16T10:10:05;12.70;99.90
42479;DHT22;28110;47.080;9.476;2023-05-16T10:12:33;12.70;99.90
42479;DHT22;28110;47.080;9.476;2023-05-16T10:15:00;12.70;99.90
42479;DHT22;28110;47.080;9.476;2023-05-16T10:17:29;12.70;99.90
42479;DHT22;28110;47.080;9.476;2023-05-16T10:19:57;12.70;99.90
42479;DHT22;28110;47.080;9.476;2023-05-16T10:22:22;12.70;99.90
42479;DHT22;28110;47.080;9.476;2023-05-16T10:24:59;12.80;99.90
42479;DHT22;28110;47.080;9.476;2023-05-16T10:27:29;12.80;99.90
42479;DHT22;28110;47.080;9.476;2023-05-16T10:29:55;12.80;99.90
42479;DHT22;28110;47.080;9.476;2023-05-16T10:32:23;12.80;99.90
42479;DHT22;28110;47.080;9.476;2023-05-16T10:34:49;12.80;99.90
42479;DHT22;28110;47.080;9.476;2023-05-16T10:37:15;12.80;99.90
42479;DHT22;28110;47.080;9.476;2023-05-16T10:39:41;12.80;99.90
42479;DHT22;28110;47.080;9.476;2023-05-16T10:42:07;12.90;99.90
42479;DHT22;28110;47.080;9.476;2023-05-16T10:44:33;12.90;99.90
42479;DHT22;28110;47.080;9.476;2023-05-16T10:46:59;13.00;99.90
42479;DHT22;28110;47.080;9.476;2023-05-16T10:49:26;13.00;99.90
42479;DHT22;28110;47.080;9.476;2023-05-16T10:52:11;13.00;99.90
42479;DHT22;28110;47.080;9.476;2023-05-16T10:54:42;13.00;99.90
42479;DHT22;28110;47.080;9.476;2023-05-16T10:59:41;13.00;99.90
42479;DHT22;28110;47.080;9.476;2023-05-16T11:02:24;13.00;99.90
42479;DHT22;28110;47.080;9.476;2023-05-16T11:04:51;13.00;99.90
42479;DHT22;28110;47.080;9.476;2023-05-16T11:07:18;13.00;99.90
42479;DHT22;28110;47.080;9.476;2023-05-16T11:09:44;12.90;99.90
42479;DHT22;28110;47.080;9.476;2023-05-16T11:12:12;12.90;99.90
42479;DHT22;28110;47.080;9.476;2023-05-16T11:14:39;12.80;99.90
42479;DHT22;28110;47.080;9.476;2023-05-16T11:17:13;12.80;99.90
42479;DHT22;28110;47.080;9.476;2023-05-16T11:19:46;12.80;99.90
42479;DHT22;28110;47.080;9.476;2023-05-16T11:24:55;12.90;99.90
42479;DHT22;28110;47.080;9.476;2023-05-16T11:27:45;12.90;99.90
42479;DHT22;28110;47.080;9.476;2023-05-16T11:30:11;12.90;99.90
42479;DHT22;28110;47.080;9.476;2023-05-16T11:32:39;12.80;99.90
42479;DHT22;28110;47.080;9.476;2023-05-16T11:35:08;12.90;99.90
42479;DHT22;28110;47.080;9.476;2023-05-16T11:37:35;12.90;99.90
42479;DHT22;28110;47.080;9.476;2023-05-16T11:40:05;12.70;99.90
42479;DHT22;28110;47.080;9.476;2023-05-16T11:42:36;12.60;99.90
42479;DHT22;28110;47.080;9.476;2023-05-16T11:45:07;12.40;99.90
42479;DHT22;28110;47.080;9.476;2023-05-16T11:47:34;12.30;99.90
42479;DHT22;28110;47.080;9.476;2023-05-16T11:50:05;12.30;99.90
42479;DHT22;28110;47.080;9.476;2023-05-16T11:52:33;12.30;99.90
42479;DHT22;28110;47.080;9.476;2023-05-16T11:54:58;12.30;99.90
42479;DHT22;28110;47.080;9.476;2023-05-16T11:57:26;12.40;99.90
42479;DHT22;28110;47.080;9.476;2023-05-16T11:59:52;12.40;99.90
42479;DHT22;28110;47.080;9.476;2023-05-16T12:02:18;12.50;99.90
42479;DHT22;28110;47.080;9.476;2023-05-16T12:04:46;12.50;99.90
42479;DHT22;28110;47.080;9.476;2023-05-16T12:07:14;12.40;99.90
42479;DHT22;28110;47.080;9.476;2023-05-16T12:09:40;12.30;99.90
42479;DHT22;28110;47.080;9.476;2023-05-16T12:12:06;12.20;99.90
42479;DHT22;28110;47.080;9.476;2023-05-16T12:14:32;12.10;99.90
42479;DHT22;28110;47.080;9.476;2023-05-16T12:16:58;12.20;99.90
42479;DHT22;28110;47.080;9.476;2023-05-16T12:19:24;12.20;99.90
42479;DHT22;28110;47.080;9.476;2023-05-16T12:21:53;12.10;99.90
42479;DHT22;28110;47.080;9.476;2023-05-16T12:24:18;12.10;99.90
42479;DHT22;28110;47.080;9.476;2023-05-16T12:26:45;12.10;99.90
42479;DHT22;28110;47.080;9.476;2023-05-16T12:29:11;12.00;99.90
42479;DHT22;28110;47.080;9.476;2023-05-16T12:31:38;12.10;99.90
42479;DHT22;28110;47.080;9.476;2023-05-16T12:34:04;12.00;99.90
42479;DHT22;28110;47.080;9.476;2023-05-16T12:36:38;12.00;99.90
42479;DHT22;28110;47.080;9.476;2023-05-16T12:39:04;11.90;99.90
42479;DHT22;28110;47.080;9.476;2023-05-16T12:41:30;12.00;99.90
42479;DHT22;28110;47.080;9.476;2023-05-16T12:44:08;12.00;99.90
42479;DHT22;28110;47.080;9.476;2023-05-16T12:46:40;12.10;99.90
42479;DHT22;28110;47.080;9.476;2023-05-16T12:49:07;12.20;99.90
42479;DHT22;28110;47.080;9.476;2023-05-16T12:51:32;12.10;99.90
42479;DHT22;28110;47.080;9.476;2023-05-16T12:54:07;12.20;99.90
42479;DHT22;28110;47.080;9.476;2023-05-16T12:56:33;12.20;99.90
42479;DHT22;28110;47.080;9.476;2023-05-16T12:58:59;12.20;99.90
42479;DHT22;28110;47.080;9.476;2023-05-16T13:01:24;12.30;99.90
42479;DHT22;28110;47.080;9.476;2023-05-16T13:03:50;12.30;99.90
42479;DHT22;28110;47.080;9.476;2023-05-16T13:06:16;12.30;99.90
42479;DHT22;28110;47.080;9.476;2023-05-16T13:08:41;12.40;99.90
42479;DHT22;28110;47.080;9.476;2023-05-16T13:11:07;12.30;99.90
42479;DHT22;28110;47.080;9.476;2023-05-16T13:13:32;12.30;99.90
42479;DHT22;28110;47.080;9.476;2023-05-16T13:15:58;12.20;99.90
42479;DHT22;28110;47.080;9.476;2023-05-16T13:18:23;12.20;99.90
42479;DHT22;28110;47.080;9.476;2023-05-16T13:20:49;12.20;99.90
42479;DHT22;28110;47.080;9.476;2023-05-16T13:23:15;12.10;99.90
42479;DHT22;28110;47.080;9.476;2023-05-16T13:25:40;12.10;99.90
42479;DHT22;28110;47.080;9.476;2023-05-16T13:28:06;12.10;99.90
42479;DHT22;28110;47.080;9.476;2023-05-16T13:30:32;12.10;99.90
42479;DHT22;28110;47.080;9.476;2023-05-16T13:32:57;12.10;99.90
42479;DHT22;28110;47.080;9.476;2023-05-16T13:35:23;12.20;99.90
42479;DHT22;28110;47.080;9.476;2023-05-16T13:37:48;12.20;99.90
42479;DHT22;28110;47.080;9.476;2023-05-16T13:40:14;12.20;99.90
42479;DHT22;28110;47.080;9.476;2023-05-16T13:42:40;12.20;99.90
42479;DHT22;28110;47.080;9.476;2023-05-16T13:45:06;12.30;99.90
42479;DHT22;28110;47.080;9.476;2023-05-16T13:47:32;12.30;99.90
42479;DHT22;28110;47.080;9.476;2023-05-16T13:49:58;12.40;99.90
42479;DHT22;28110;47.080;9.476;2023-05-16T13:52:30;12.30;99.90
42479;DHT22;28110;47.080;9.476;2023-05-16T13:54:56;12.30;99.90
42479;DHT22;28110;47.080;9.476;2023-05-16T13:57:22;12.40;99.90
42479;DHT22;28110;47.080;9.476;2023-05-16T13:59:47;12.30;99.90
42479;DHT22;28110;47.080;9.476;2023-05-16T14:02:13;12.40;99.90
42479;DHT22;28110;47.080;9.476;2023-05-16T14:04:39;12.30;99.90
42479;DHT22;28110;47.080;9.476;2023-05-16T14:07:05;12.40;99.90
42479;DHT22;28110;47.080;9.476;2023-05-16T14:09:31;12.40;99.90
42479;DHT22;28110;47.080;9.476;2023-05-16T14:11:59;12.40;99.90
42479;DHT22;28110;47.080;9.476;2023-05-16T14:14:27;12.50;99.90
42479;DHT22;28110;47.080;9.476;2023-05-16T14:16:52;12.40;99.90
42479;DHT22;28110;47.080;9.476;2023-05-16T14:19:18;12.40;99.90
42479;DHT22;28110;47.080;9.476;2023-05-16T14:21:43;12.30;99.90
42479;DHT22;28110;47.080;9.476;2023-05-16T14:24:09;12.30;99.90
42479;DHT22;28110;47.080;9.476;2023-05-16T14:26:34;12.30;99.90
42479;DHT22;28110;47.080;9.476;2023-05-16T14:29:00;12.30;99.90
42479;DHT22;28110;47.080;9.476;2023-05-16T14:31:25;12.20;99.90
42479;DHT22;28110;47.080;9.476;2023-05-16T14:33:51;12.10;99.90
42479;DHT22;28110;47.080;9.476;2023-05-16T14:36:16;12.10;99.90
42479;DHT22;28110;47.080;9.476;2023-05-16T14:38:42;12.00;99.90
42479;DHT22;28110;47.080;9.476;2023-05-16T14:41:08;12.00;99.90
42479;DHT22;28110;47.080;9.476;2023-05-16T14:43:33;11.90;99.90
42479;DHT22;28110;47.080;9.476;2023-05-16T14:45:59;11.90;99.90
42479;DHT22;28110;47.080;9.476;2023-05-16T14:48:25;11.80;99.90
42479;DHT22;28110;47.080;9.476;2023-05-16T14:50:50;11.80;99.90
42479;DHT22;28110;47.080;9.476;2023-05-16T14:53:16;11.70;99.90
42479;DHT22;28110;47.080;9.476;2023-05-16T14:55:41;11.70;99.90
42479;DHT22;28110;47.080;9.476;2023-05-16T14:58:07;11.70;99.90
42479;DHT22;28110;47.080;9.476;2023-05-16T15:00:33;11.60;99.90
42479;DHT22;28110;47.080;9.476;2023-05-16T15:02:59;11.60;99.90
42479;DHT22;28110;47.080;9.476;2023-05-16T15:05:24;11.60;99.90
42479;DHT22;28110;47.080;9.476;2023-05-16T15:07:50;11.60;99.90
42479;DHT22;28110;47.080;9.476;2023-05-16T15:10:15;11.60;99.90
42479;DHT22;28110;47.080;9.476;2023-05-16T15:12:42;11.60;99.90
42479;DHT22;28110;47.080;9.476;2023-05-16T15:15:08;11.60;99.90
42479;DHT22;28110;47.080;9.476;2023-05-16T15:17:38;11.60;99.90
42479;DHT22;28110;47.080;9.476;2023-05-16T15:20:06;11.70;99.90
42479;DHT22;28110;47.080;9.476;2023-05-16T15:22:32;11.70;99.90
42479;DHT22;28110;47.080;9.476;2023-05-16T15:24:58;11.70;99.90
42479;DHT22;28110;47.080;9.476;2023-05-16T15:27:24;11.70;99.90
42479;DHT22;28110;47.080;9.476;2023-05-16T15:29:49;11.60;99.90
42479;DHT22;28110;47.080;9.476;2023-05-16T15:32:16;11.60;99.90
42479;DHT22;28110;47.080;9.476;2023-05-16T15:34:42;11.60;99.90
42479;DHT22;28110;47.080;9.476;2023-05-16T15:37:08;11.60;99.90
42479;DHT22;28110;47.080;9.476;2023-05-16T15:39:34;11.50;99.90
42479;DHT22;28110;47.080;9.476;2023-05-16T15:42:00;11.50;99.90
42479;DHT22;28110;47.080;9.476;2023-05-16T15:44:28;11.50;99.90
42479;DHT22;28110;47.080;9.476;2023-05-16T15:46:54;11.40;99.90